sensor_id;sensor_type;location;lat;lon;timestamp;P1;durP1;ratioP1;P2;durP2;ratioP2
12760;SDS011;6444;49.742;6.114;2022-09-09T00:01:08;6.93;;;4.55;;
12760;SDS011;6444;49.742;6.114;2022-09-09T00:03:37;8.98;;;4.43;;
12760;SDS011;6444;49.742;6.114;2022-09-09T00:06:14;10.00;;;4.62;;
12760;SDS011;6444;49.742;6.114;2022-09-09T00:08:45;7.22;;;4.65;;
12760;SDS011;6444;49.742;6.114;2022-09-09T00:11:13;7.85;;;4.95;;
12760;SDS011;6444;49.742;6.114;2022-09-09T00:13:43;11.15;;;4.97;;
12760;SDS011;6444;49.742;6.114;2022-09-09T00:18:49;9.18;;;4.47;;
12760;SDS011;6444;49.742;6.114;2022-09-09T00:21:14;9.52;;;5.22;;
12760;SDS011;6444;49.742;6.114;2022-09-09T00:23:40;8.55;;;4.53;;
12760;SDS011;6444;49.742;6.114;2022-09-09T00:29:05;9.23;;;5.18;;
12760;SDS011;6444;49.742;6.114;2022-09-09T00:31:36;9.43;;;5.10;;
12760;SDS011;6444;49.742;6.114;2022-09-09T00:35:12;7.62;;;4.05;;
12760;SDS011;6444;49.742;6.114;2022-09-09T00:36:45;10.20;;;3.92;;
12760;SDS011;6444;49.742;6.114;2022-09-09T00:39:13;7.00;;;4.18;;
12760;SDS011;6444;49.742;6.114;2022-09-09T00:41:59;9.23;;;4.35;;
12760;SDS011;6444;49.742;6.114;2022-09-09T00:44:33;7.87;;;4.18;;
12760;SDS011;6444;49.742;6.114;2022-09-09T00:47:04;10.35;;;5.68;;
12760;SDS011;6444;49.742;6.114;2022-09-09T00:52:37;6.93;;;4.80;;
12760;SDS011;6444;49.742;6.114;2022-09-09T00:57:37;10.43;;;4.12;;
12760;SDS011;6444;49.742;6.114;2022-09-09T01:03:07;9.13;;;4.32;;
12760;SDS011;6444;49.742;6.114;2022-09-09T01:05:54;7.28;;;3.95;;
12760;SDS011;6444;49.742;6.114;2022-09-09T01:11:13;7.00;;;3.70;;
12760;SDS011;6444;49.742;6.114;2022-09-09T01:13:35;7.22;;;4.05;;
12760;SDS011;6444;49.742;6.114;2022-09-09T01:16:03;10.55;;;5.45;;
12760;SDS011;6444;49.742;6.114;2022-09-09T01:18:31;10.63;;;4.40;;
12760;SDS011;6444;49.742;6.114;2022-09-09T01:23:48;8.77;;;3.90;;
12760;SDS011;6444;49.742;6.114;2022-09-09T01:26:21;9.35;;;3.95;;
12760;SDS011;6444;49.742;6.114;2022-09-09T01:28:50;8.57;;;4.12;;
12760;SDS011;6444;49.742;6.114;2022-09-09T01:31:20;12.43;;;4.50;;
12760;SDS011;6444;49.742;6.114;2022-09-09T01:33:46;9.13;;;4.22;;
12760;SDS011;6444;49.742;6.114;2022-09-09T01:36:14;5.62;;;4.10;;
12760;SDS011;6444;49.742;6.114;2022-09-09T01:38:39;11.00;;;4.03;;
12760;SDS011;6444;49.742;6.114;2022-09-09T01:41:05;10.45;;;4.05;;
12760;SDS011;6444;49.742;6.114;2022-09-09T01:43:33;8.73;;;4.20;;
12760;SDS011;6444;49.742;6.114;2022-09-09T01:46:00;11.05;;;4.37;;
12760;SDS011;6444;49.742;6.114;2022-09-09T01:48:27;8.13;;;4.15;;
12760;SDS011;6444;49.742;6.114;2022-09-09T01:50:53;5.97;;;4.20;;
12760;SDS011;6444;49.742;6.114;2022-09-09T01:53:20;8.75;;;4.60;;
12760;SDS011;6444;49.742;6.114;2022-09-09T01:58:42;6.53;;;4.00;;
12760;SDS011;6444;49.742;6.114;2022-09-09T02:01:15;8.77;;;4.75;;
12760;SDS011;6444;49.742;6.114;2022-09-09T02:03:58;7.97;;;4.53;;
12760;SDS011;6444;49.742;6.114;2022-09-09T02:06:33;13.25;;;5.15;;
12760;SDS011;6444;49.742;6.114;2022-09-09T02:08:58;8.77;;;4.50;;
12760;SDS011;6444;49.742;6.114;2022-09-09T02:11:27;9.77;;;4.80;;
12760;SDS011;6444;49.742;6.114;2022-09-09T02:13:52;9.85;;;4.93;;
12760;SDS011;6444;49.742;6.114;2022-09-09T02:16:19;11.45;;;4.35;;
12760;SDS011;6444;49.742;6.114;2022-09-09T02:18:51;7.12;;;4.47;;
12760;SDS011;6444;49.742;6.114;2022-09-09T02:21:36;11.43;;;5.20;;
12760;SDS011;6444;49.742;6.114;2022-09-09T02:24:04;11.15;;;4.72;;
12760;SDS011;6444;49.742;6.114;2022-09-09T02:26:30;6.85;;;4.00;;
12760;SDS011;6444;49.742;6.114;2022-09-09T02:28:57;9.65;;;4.30;;
12760;SDS011;6444;49.742;6.114;2022-09-09T02:31:23;6.65;;;3.58;;
12760;SDS011;6444;49.742;6.114;2022-09-09T02:33:51;6.95;;;4.05;;
12760;SDS011;6444;49.742;6.114;2022-09-09T02:36:19;9.70;;;3.83;;
12760;SDS011;6444;49.742;6.114;2022-09-09T02:38:46;7.10;;;4.15;;
12760;SDS011;6444;49.742;6.114;2022-09-09T02:41:12;6.47;;;3.95;;
12760;SDS011;6444;49.742;6.114;2022-09-09T02:43:39;6.68;;;4.28;;
12760;SDS011;6444;49.742;6.114;2022-09-09T02:46:21;8.93;;;4.03;;
12760;SDS011;6444;49.742;6.114;2022-09-09T02:48:47;16.40;;;4.25;;
12760;SDS011;6444;49.742;6.114;2022-09-09T02:51:08;9.48;;;3.90;;
12760;SDS011;6444;49.742;6.114;2022-09-09T02:56:15;10.32;;;4.18;;
12760;SDS011;6444;49.742;6.114;2022-09-09T02:58:41;7.97;;;4.47;;
12760;SDS011;6444;49.742;6.114;2022-09-09T03:01:08;12.32;;;3.80;;
12760;SDS011;6444;49.742;6.114;2022-09-09T03:03:34;11.20;;;4.20;;
12760;SDS011;6444;49.742;6.114;2022-09-09T03:06:01;10.65;;;4.28;;
12760;SDS011;6444;49.742;6.114;2022-09-09T03:08:28;9.50;;;4.55;;
12760;SDS011;6444;49.742;6.114;2022-09-09T03:10:54;8.07;;;3.65;;
12760;SDS011;6444;49.742;6.114;2022-09-09T03:13:21;10.20;;;4.40;;
12760;SDS011;6444;49.742;6.114;2022-09-09T03:15:48;10.02;;;3.87;;
12760;SDS011;6444;49.742;6.114;2022-09-09T03:18:14;11.20;;;4.03;;
12760;SDS011;6444;49.742;6.114;2022-09-09T03:20:41;8.57;;;4.25;;
12760;SDS011;6444;49.742;6.114;2022-09-09T03:23:07;5.78;;;3.60;;
12760;SDS011;6444;49.742;6.114;2022-09-09T03:25:34;10.50;;;3.45;;
12760;SDS011;6444;49.742;6.114;2022-09-09T03:28:01;10.80;;;3.72;;
12760;SDS011;6444;49.742;6.114;2022-09-09T03:30:27;11.95;;;3.90;;
12760;SDS011;6444;49.742;6.114;2022-09-09T03:32:54;6.62;;;3.37;;
12760;SDS011;6444;49.742;6.114;2022-09-09T03:35:23;8.98;;;3.40;;
12760;SDS011;6444;49.742;6.114;2022-09-09T03:37:50;7.22;;;3.03;;
12760;SDS011;6444;49.742;6.114;2022-09-09T03:40:16;9.55;;;3.92;;
12760;SDS011;6444;49.742;6.114;2022-09-09T03:42:43;8.65;;;3.90;;
12760;SDS011;6444;49.742;6.114;2022-09-09T03:45:09;8.13;;;3.33;;
12760;SDS011;6444;49.742;6.114;2022-09-09T03:47:36;9.93;;;3.50;;
12760;SDS011;6444;49.742;6.114;2022-09-09T03:50:04;9.20;;;3.40;;
12760;SDS011;6444;49.742;6.114;2022-09-09T03:52:30;9.35;;;3.42;;
12760;SDS011;6444;49.742;6.114;2022-09-09T03:54:57;7.78;;;3.55;;
12760;SDS011;6444;49.742;6.114;2022-09-09T03:57:23;12.93;;;3.42;;
12760;SDS011;6444;49.742;6.114;2022-09-09T03:59:50;7.82;;;2.90;;
12760;SDS011;6444;49.742;6.114;2022-09-09T04:02:17;8.65;;;3.22;;
12760;SDS011;6444;49.742;6.114;2022-09-09T04:04:43;8.13;;;3.20;;
12760;SDS011;6444;49.742;6.114;2022-09-09T04:07:10;11.90;;;3.25;;
12760;SDS011;6444;49.742;6.114;2022-09-09T04:09:37;10.30;;;3.83;;
12760;SDS011;6444;49.742;6.114;2022-09-09T04:12:04;7.00;;;3.03;;
12760;SDS011;6444;49.742;6.114;2022-09-09T04:14:31;6.85;;;2.95;;
12760;SDS011;6444;49.742;6.114;2022-09-09T04:16:58;8.75;;;3.10;;
12760;SDS011;6444;49.742;6.114;2022-09-09T04:19:25;8.70;;;3.10;;
12760;SDS011;6444;49.742;6.114;2022-09-09T04:21:51;6.37;;;3.10;;
12760;SDS011;6444;49.742;6.114;2022-09-09T04:24:18;8.30;;;2.95;;
12760;SDS011;6444;49.742;6.114;2022-09-09T04:26:44;7.40;;;3.05;;
12760;SDS011;6444;49.742;6.114;2022-09-09T04:29:11;6.05;;;2.75;;
12760;SDS011;6444;49.742;6.114;2022-09-09T04:31:38;11.35;;;3.17;;
12760;SDS011;6444;49.742;6.114;2022-09-09T04:34:04;6.90;;;2.75;;
12760;SDS011;6444;49.742;6.114;2022-09-09T04:36:31;9.45;;;2.80;;
12760;SDS011;6444;49.742;6.114;2022-09-09T04:38:58;14.38;;;2.90;;
12760;SDS011;6444;49.742;6.114;2022-09-09T04:41:24;7.40;;;2.70;;
12760;SDS011;6444;49.742;6.114;2022-09-09T04:43:51;8.35;;;2.30;;
12760;SDS011;6444;49.742;6.114;2022-09-09T04:46:17;10.23;;;2.70;;
12760;SDS011;6444;49.742;6.114;2022-09-09T04:48:45;10.18;;;2.33;;
12760;SDS011;6444;49.742;6.114;2022-09-09T04:51:13;8.45;;;2.50;;
12760;SDS011;6444;49.742;6.114;2022-09-09T04:53:38;7.53;;;2.40;;
12760;SDS011;6444;49.742;6.114;2022-09-09T04:56:06;7.75;;;2.72;;
12760;SDS011;6444;49.742;6.114;2022-09-09T04:58:34;10.35;;;2.97;;
12760;SDS011;6444;49.742;6.114;2022-09-09T05:01:04;9.40;;;2.67;;
12760;SDS011;6444;49.742;6.114;2022-09-09T05:03:30;7.60;;;3.75;;
12760;SDS011;6444;49.742;6.114;2022-09-09T05:06:04;9.02;;;4.57;;
12760;SDS011;6444;49.742;6.114;2022-09-09T05:08:33;14.70;;;8.98;;
12760;SDS011;6444;49.742;6.114;2022-09-09T05:10:59;10.52;;;3.40;;
12760;SDS011;6444;49.742;6.114;2022-09-09T05:13:26;8.48;;;3.17;;
12760;SDS011;6444;49.742;6.114;2022-09-09T05:15:53;8.25;;;3.20;;
12760;SDS011;6444;49.742;6.114;2022-09-09T05:18:20;10.25;;;3.42;;
12760;SDS011;6444;49.742;6.114;2022-09-09T05:20:47;7.83;;;3.20;;
12760;SDS011;6444;49.742;6.114;2022-09-09T05:23:13;8.90;;;3.00;;
12760;SDS011;6444;49.742;6.114;2022-09-09T05:25:40;8.88;;;3.08;;
12760;SDS011;6444;49.742;6.114;2022-09-09T05:28:07;6.50;;;2.60;;
12760;SDS011;6444;49.742;6.114;2022-09-09T05:30:33;9.65;;;3.05;;
12760;SDS011;6444;49.742;6.114;2022-09-09T05:33:00;9.98;;;2.72;;
12760;SDS011;6444;49.742;6.114;2022-09-09T05:35:26;6.93;;;2.60;;
12760;SDS011;6444;49.742;6.114;2022-09-09T05:37:53;7.55;;;2.53;;
12760;SDS011;6444;49.742;6.114;2022-09-09T05:40:20;8.73;;;2.40;;
12760;SDS011;6444;49.742;6.114;2022-09-09T05:42:46;7.15;;;2.40;;
12760;SDS011;6444;49.742;6.114;2022-09-09T05:45:13;5.18;;;2.00;;
12760;SDS011;6444;49.742;6.114;2022-09-09T05:47:40;10.57;;;2.55;;
12760;SDS011;6444;49.742;6.114;2022-09-09T05:50:07;8.05;;;2.37;;
12760;SDS011;6444;49.742;6.114;2022-09-09T05:52:34;6.72;;;2.60;;
12760;SDS011;6444;49.742;6.114;2022-09-09T05:55:00;8.43;;;2.17;;
12760;SDS011;6444;49.742;6.114;2022-09-09T05:57:27;8.13;;;2.12;;
12760;SDS011;6444;49.742;6.114;2022-09-09T05:59:54;11.25;;;2.15;;
12760;SDS011;6444;49.742;6.114;2022-09-09T06:02:21;9.43;;;2.00;;
12760;SDS011;6444;49.742;6.114;2022-09-09T06:04:47;7.10;;;2.10;;
12760;SDS011;6444;49.742;6.114;2022-09-09T06:07:14;9.43;;;2.95;;
12760;SDS011;6444;49.742;6.114;2022-09-09T06:09:41;6.97;;;1.70;;
12760;SDS011;6444;49.742;6.114;2022-09-09T06:12:07;9.35;;;2.20;;
12760;SDS011;6444;49.742;6.114;2022-09-09T06:14:34;6.53;;;2.00;;
12760;SDS011;6444;49.742;6.114;2022-09-09T06:17:01;3.80;;;1.73;;
12760;SDS011;6444;49.742;6.114;2022-09-09T06:19:27;8.85;;;2.37;;
12760;SDS011;6444;49.742;6.114;2022-09-09T06:21:54;10.38;;;2.75;;
12760;SDS011;6444;49.742;6.114;2022-09-09T06:24:20;5.50;;;1.60;;
12760;SDS011;6444;49.742;6.114;2022-09-09T06:26:47;13.82;;;2.35;;
12760;SDS011;6444;49.742;6.114;2022-09-09T06:29:14;4.60;;;1.52;;
12760;SDS011;6444;49.742;6.114;2022-09-09T06:31:41;6.22;;;1.73;;
12760;SDS011;6444;49.742;6.114;2022-09-09T06:34:08;6.53;;;1.80;;
12760;SDS011;6444;49.742;6.114;2022-09-09T06:36:35;6.85;;;1.50;;
12760;SDS011;6444;49.742;6.114;2022-09-09T06:39:01;7.62;;;1.77;;
12760;SDS011;6444;49.742;6.114;2022-09-09T06:41:28;7.47;;;1.85;;
12760;SDS011;6444;49.742;6.114;2022-09-09T06:43:54;9.50;;;2.08;;
12760;SDS011;6444;49.742;6.114;2022-09-09T06:46:26;13.93;;;2.42;;
12760;SDS011;6444;49.742;6.114;2022-09-09T06:48:51;10.25;;;1.77;;
12760;SDS011;6444;49.742;6.114;2022-09-09T06:51:19;5.47;;;1.90;;
12760;SDS011;6444;49.742;6.114;2022-09-09T06:53:45;5.57;;;1.70;;
12760;SDS011;6444;49.742;6.114;2022-09-09T06:58:41;6.50;;;1.83;;
12760;SDS011;6444;49.742;6.114;2022-09-09T07:01:14;6.35;;;1.83;;
12760;SDS011;6444;49.742;6.114;2022-09-09T07:03:40;7.32;;;2.30;;
12760;SDS011;6444;49.742;6.114;2022-09-09T07:06:08;8.82;;;2.12;;
12760;SDS011;6444;49.742;6.114;2022-09-09T07:08:33;7.55;;;1.87;;
12760;SDS011;6444;49.742;6.114;2022-09-09T07:11:04;6.55;;;1.75;;
12760;SDS011;6444;49.742;6.114;2022-09-09T07:13:29;6.62;;;2.58;;
12760;SDS011;6444;49.742;6.114;2022-09-09T07:16:03;4.62;;;2.03;;
12760;SDS011;6444;49.742;6.114;2022-09-09T07:18:35;6.68;;;2.05;;
12760;SDS011;6444;49.742;6.114;2022-09-09T07:21:01;7.85;;;2.10;;
12760;SDS011;6444;49.742;6.114;2022-09-09T07:23:28;11.27;;;2.40;;
12760;SDS011;6444;49.742;6.114;2022-09-09T07:25:54;8.53;;;2.50;;
12760;SDS011;6444;49.742;6.114;2022-09-09T07:28:21;6.55;;;2.00;;
12760;SDS011;6444;49.742;6.114;2022-09-09T07:30:57;6.75;;;2.05;;
12760;SDS011;6444;49.742;6.114;2022-09-09T07:33:24;5.78;;;1.92;;
12760;SDS011;6444;49.742;6.114;2022-09-09T07:35:50;4.82;;;2.03;;
12760;SDS011;6444;49.742;6.114;2022-09-09T07:38:16;9.20;;;2.00;;
12760;SDS011;6444;49.742;6.114;2022-09-09T07:40:43;8.70;;;1.50;;
12760;SDS011;6444;49.742;6.114;2022-09-09T07:43:10;6.35;;;1.90;;
12760;SDS011;6444;49.742;6.114;2022-09-09T07:45:36;7.50;;;1.85;;
12760;SDS011;6444;49.742;6.114;2022-09-09T07:48:03;8.02;;;1.77;;
12760;SDS011;6444;49.742;6.114;2022-09-09T07:50:30;5.00;;;1.75;;
12760;SDS011;6444;49.742;6.114;2022-09-09T07:52:57;5.65;;;1.85;;
12760;SDS011;6444;49.742;6.114;2022-09-09T07:55:24;5.62;;;1.65;;
12760;SDS011;6444;49.742;6.114;2022-09-09T07:57:52;4.93;;;1.50;;
12760;SDS011;6444;49.742;6.114;2022-09-09T08:00:18;5.22;;;1.60;;
12760;SDS011;6444;49.742;6.114;2022-09-09T08:02:44;4.85;;;1.90;;
12760;SDS011;6444;49.742;6.114;2022-09-09T08:05:11;10.35;;;2.67;;
12760;SDS011;6444;49.742;6.114;2022-09-09T08:07:38;7.78;;;2.92;;
12760;SDS011;6444;49.742;6.114;2022-09-09T08:10:05;4.87;;;1.70;;
12760;SDS011;6444;49.742;6.114;2022-09-09T08:12:32;6.60;;;1.90;;
12760;SDS011;6444;49.742;6.114;2022-09-09T08:14:58;7.35;;;1.70;;
12760;SDS011;6444;49.742;6.114;2022-09-09T08:17:25;6.25;;;1.60;;
12760;SDS011;6444;49.742;6.114;2022-09-09T08:19:51;5.10;;;2.08;;
12760;SDS011;6444;49.742;6.114;2022-09-09T08:22:18;6.65;;;2.33;;
12760;SDS011;6444;49.742;6.114;2022-09-09T08:24:45;5.80;;;1.62;;
12760;SDS011;6444;49.742;6.114;2022-09-09T08:27:11;11.10;;;1.80;;
12760;SDS011;6444;49.742;6.114;2022-09-09T08:29:38;7.25;;;1.77;;
12760;SDS011;6444;49.742;6.114;2022-09-09T08:32:05;6.40;;;2.10;;
12760;SDS011;6444;49.742;6.114;2022-09-09T08:34:31;7.07;;;1.90;;
12760;SDS011;6444;49.742;6.114;2022-09-09T08:36:58;6.18;;;1.80;;
12760;SDS011;6444;49.742;6.114;2022-09-09T08:39:24;6.97;;;1.90;;
12760;SDS011;6444;49.742;6.114;2022-09-09T08:50:16;7.43;;;1.90;;
12760;SDS011;6444;49.742;6.114;2022-09-09T08:52:55;5.93;;;1.83;;
12760;SDS011;6444;49.742;6.114;2022-09-09T08:55:35;6.75;;;1.95;;
12760;SDS011;6444;49.742;6.114;2022-09-09T08:58:13;7.37;;;1.52;;
12760;SDS011;6444;49.742;6.114;2022-09-09T09:11:55;5.57;;;1.20;;
12760;SDS011;6444;49.742;6.114;2022-09-09T09:14:24;4.85;;;1.42;;
12760;SDS011;6444;49.742;6.114;2022-09-09T09:16:52;5.03;;;1.42;;
12760;SDS011;6444;49.742;6.114;2022-09-09T09:19:23;6.47;;;1.60;;
12760;SDS011;6444;49.742;6.114;2022-09-09T09:22:14;5.75;;;1.50;;
12760;SDS011;6444;49.742;6.114;2022-09-09T09:27:11;3.53;;;1.17;;
12760;SDS011;6444;49.742;6.114;2022-09-09T09:29:33;6.65;;;1.90;;
12760;SDS011;6444;49.742;6.114;2022-09-09T09:32:00;4.05;;;1.50;;
12760;SDS011;6444;49.742;6.114;2022-09-09T09:34:27;3.80;;;1.50;;
12760;SDS011;6444;49.742;6.114;2022-09-09T09:36:54;5.35;;;1.67;;
12760;SDS011;6444;49.742;6.114;2022-09-09T09:39:24;6.65;;;1.55;;
12760;SDS011;6444;49.742;6.114;2022-09-09T09:41:49;7.35;;;1.60;;
12760;SDS011;6444;49.742;6.114;2022-09-09T09:44:21;5.40;;;1.42;;
12760;SDS011;6444;49.742;6.114;2022-09-09T09:46:45;2.83;;;1.27;;
12760;SDS011;6444;49.742;6.114;2022-09-09T09:49:12;7.00;;;1.63;;
12760;SDS011;6444;49.742;6.114;2022-09-09T09:51:38;3.33;;;1.33;;
12760;SDS011;6444;49.742;6.114;2022-09-09T09:54:09;3.62;;;1.27;;
12760;SDS011;6444;49.742;6.114;2022-09-09T09:56:44;4.18;;;1.12;;
12760;SDS011;6444;49.742;6.114;2022-09-09T09:59:32;4.60;;;1.20;;
12760;SDS011;6444;49.742;6.114;2022-09-09T10:02:19;4.97;;;1.37;;
12760;SDS011;6444;49.742;6.114;2022-09-09T10:07:40;3.50;;;1.17;;
12760;SDS011;6444;49.742;6.114;2022-09-09T10:10:08;4.22;;;1.65;;
12760;SDS011;6444;49.742;6.114;2022-09-09T10:18:07;2.65;;;0.90;;
12760;SDS011;6444;49.742;6.114;2022-09-09T10:23:20;4.93;;;1.20;;
12760;SDS011;6444;49.742;6.114;2022-09-09T10:25:47;3.25;;;1.58;;
12760;SDS011;6444;49.742;6.114;2022-09-09T10:28:17;2.62;;;1.20;;
12760;SDS011;6444;49.742;6.114;2022-09-09T10:30:54;4.37;;;1.50;;
12760;SDS011;6444;49.742;6.114;2022-09-09T10:33:26;2.92;;;1.20;;
12760;SDS011;6444;49.742;6.114;2022-09-09T10:35:59;5.25;;;1.67;;
12760;SDS011;6444;49.742;6.114;2022-09-09T10:38:45;2.92;;;1.58;;
12760;SDS011;6444;49.742;6.114;2022-09-09T10:52:24;4.97;;;1.30;;
12760;SDS011;6444;49.742;6.114;2022-09-09T10:57:02;4.93;;;1.75;;
12760;SDS011;6444;49.742;6.114;2022-09-09T10:59:25;3.33;;;1.30;;
12760;SDS011;6444;49.742;6.114;2022-09-09T11:01:52;2.47;;;1.10;;
12760;SDS011;6444;49.742;6.114;2022-09-09T11:04:24;4.80;;;1.33;;
12760;SDS011;6444;49.742;6.114;2022-09-09T11:06:54;5.90;;;1.27;;
12760;SDS011;6444;49.742;6.114;2022-09-09T11:09:20;3.30;;;1.20;;
12760;SDS011;6444;49.742;6.114;2022-09-09T11:11:50;3.83;;;1.10;;
12760;SDS011;6444;49.742;6.114;2022-09-09T11:16:56;4.28;;;1.30;;
12760;SDS011;6444;49.742;6.114;2022-09-09T11:19:42;4.87;;;1.70;;
12760;SDS011;6444;49.742;6.114;2022-09-09T11:22:13;3.28;;;1.27;;
12760;SDS011;6444;49.742;6.114;2022-09-09T11:24:38;2.35;;;0.95;;
12760;SDS011;6444;49.742;6.114;2022-09-09T11:32:30;4.37;;;1.20;;
12760;SDS011;6444;49.742;6.114;2022-09-09T11:40:26;2.65;;;1.02;;
12760;SDS011;6444;49.742;6.114;2022-09-09T11:43:05;2.60;;;1.10;;
12760;SDS011;6444;49.742;6.114;2022-09-09T11:45:36;2.75;;;1.33;;
12760;SDS011;6444;49.742;6.114;2022-09-09T11:48:03;4.87;;;1.27;;
12760;SDS011;6444;49.742;6.114;2022-09-09T11:50:31;3.20;;;1.17;;
12760;SDS011;6444;49.742;6.114;2022-09-09T11:53:05;3.17;;;1.02;;
12760;SDS011;6444;49.742;6.114;2022-09-09T11:55:34;2.80;;;1.25;;
12760;SDS011;6444;49.742;6.114;2022-09-09T11:58:04;2.85;;;1.20;;
12760;SDS011;6444;49.742;6.114;2022-09-09T12:00:39;2.55;;;0.85;;
12760;SDS011;6444;49.742;6.114;2022-09-09T12:05:59;3.03;;;1.40;;
12760;SDS011;6444;49.742;6.114;2022-09-09T12:08:28;3.42;;;0.88;;
12760;SDS011;6444;49.742;6.114;2022-09-09T12:10:56;4.10;;;1.23;;
12760;SDS011;6444;49.742;6.114;2022-09-09T12:13:23;2.97;;;0.95;;
12760;SDS011;6444;49.742;6.114;2022-09-09T12:15:50;3.42;;;1.30;;
12760;SDS011;6444;49.742;6.114;2022-09-09T12:18:22;5.43;;;1.40;;
12760;SDS011;6444;49.742;6.114;2022-09-09T12:20:53;5.18;;;1.45;;
12760;SDS011;6444;49.742;6.114;2022-09-09T12:23:19;4.53;;;1.47;;
12760;SDS011;6444;49.742;6.114;2022-09-09T12:28:52;3.47;;;1.10;;
12760;SDS011;6444;49.742;6.114;2022-09-09T12:34:18;5.15;;;1.27;;
12760;SDS011;6444;49.742;6.114;2022-09-09T12:36:44;2.45;;;1.00;;
12760;SDS011;6444;49.742;6.114;2022-09-09T12:39:12;5.57;;;1.47;;
12760;SDS011;6444;49.742;6.114;2022-09-09T12:41:50;2.17;;;0.90;;
12760;SDS011;6444;49.742;6.114;2022-09-09T12:44:09;4.10;;;1.35;;
12760;SDS011;6444;49.742;6.114;2022-09-09T12:46:36;4.40;;;1.00;;
12760;SDS011;6444;49.742;6.114;2022-09-09T12:49:27;5.65;;;1.52;;
12760;SDS011;6444;49.742;6.114;2022-09-09T12:51:52;3.15;;;1.30;;
12760;SDS011;6444;49.742;6.114;2022-09-09T12:54:20;3.60;;;1.33;;
12760;SDS011;6444;49.742;6.114;2022-09-09T12:56:46;2.90;;;1.00;;
12760;SDS011;6444;49.742;6.114;2022-09-09T12:59:23;5.75;;;1.20;;
12760;SDS011;6444;49.742;6.114;2022-09-09T13:01:54;2.35;;;1.23;;
12760;SDS011;6444;49.742;6.114;2022-09-09T13:04:19;4.22;;;1.33;;
12760;SDS011;6444;49.742;6.114;2022-09-09T13:06:47;3.78;;;1.17;;
12760;SDS011;6444;49.742;6.114;2022-09-09T13:09:13;3.22;;;1.00;;
12760;SDS011;6444;49.742;6.114;2022-09-09T13:11:44;4.05;;;1.55;;
12760;SDS011;6444;49.742;6.114;2022-09-09T13:14:15;4.82;;;1.73;;
12760;SDS011;6444;49.742;6.114;2022-09-09T13:16:42;7.65;;;1.70;;
12760;SDS011;6444;49.742;6.114;2022-09-09T13:19:09;5.43;;;1.55;;
12760;SDS011;6444;49.742;6.114;2022-09-09T13:21:36;3.72;;;1.10;;
12760;SDS011;6444;49.742;6.114;2022-09-09T13:24:05;3.15;;;1.20;;
12760;SDS011;6444;49.742;6.114;2022-09-09T13:26:31;3.47;;;1.30;;
12760;SDS011;6444;49.742;6.114;2022-09-09T13:29:07;2.55;;;1.00;;
12760;SDS011;6444;49.742;6.114;2022-09-09T13:31:35;3.97;;;1.33;;
12760;SDS011;6444;49.742;6.114;2022-09-09T13:34:11;3.72;;;1.67;;
12760;SDS011;6444;49.742;6.114;2022-09-09T13:36:38;5.18;;;1.05;;
12760;SDS011;6444;49.742;6.114;2022-09-09T13:39:04;1.92;;;1.20;;
12760;SDS011;6444;49.742;6.114;2022-09-09T13:41:35;3.45;;;1.65;;
12760;SDS011;6444;49.742;6.114;2022-09-09T13:44:01;2.58;;;1.20;;
12760;SDS011;6444;49.742;6.114;2022-09-09T13:46:33;3.17;;;1.42;;
12760;SDS011;6444;49.742;6.114;2022-09-09T13:51:39;2.53;;;1.35;;
12760;SDS011;6444;49.742;6.114;2022-09-09T13:54:11;4.43;;;1.45;;
12760;SDS011;6444;49.742;6.114;2022-09-09T13:56:37;3.53;;;1.50;;
12760;SDS011;6444;49.742;6.114;2022-09-09T13:59:04;4.62;;;1.50;;
12760;SDS011;6444;49.742;6.114;2022-09-09T14:01:30;5.55;;;1.60;;
12760;SDS011;6444;49.742;6.114;2022-09-09T14:03:56;2.80;;;1.60;;
12760;SDS011;6444;49.742;6.114;2022-09-09T14:06:23;5.70;;;2.03;;
12760;SDS011;6444;49.742;6.114;2022-09-09T14:08:50;3.00;;;1.35;;
12760;SDS011;6444;49.742;6.114;2022-09-09T14:11:17;3.22;;;1.58;;
12760;SDS011;6444;49.742;6.114;2022-09-09T14:13:43;4.93;;;1.65;;
12760;SDS011;6444;49.742;6.114;2022-09-09T14:16:10;4.80;;;1.80;;
12760;SDS011;6444;49.742;6.114;2022-09-09T14:18:36;5.10;;;1.70;;
12760;SDS011;6444;49.742;6.114;2022-09-09T14:21:03;2.42;;;1.23;;
12760;SDS011;6444;49.742;6.114;2022-09-09T14:23:30;3.50;;;1.40;;
12760;SDS011;6444;49.742;6.114;2022-09-09T14:25:57;3.65;;;1.62;;
12760;SDS011;6444;49.742;6.114;2022-09-09T14:28:23;3.90;;;1.55;;
12760;SDS011;6444;49.742;6.114;2022-09-09T14:30:50;3.10;;;1.50;;
12760;SDS011;6444;49.742;6.114;2022-09-09T14:33:17;5.87;;;1.95;;
12760;SDS011;6444;49.742;6.114;2022-09-09T14:35:43;2.65;;;1.35;;
12760;SDS011;6444;49.742;6.114;2022-09-09T14:38:10;2.67;;;1.37;;
12760;SDS011;6444;49.742;6.114;2022-09-09T14:40:37;2.87;;;1.35;;
12760;SDS011;6444;49.742;6.114;2022-09-09T14:43:04;3.22;;;1.27;;
12760;SDS011;6444;49.742;6.114;2022-09-09T14:45:30;3.90;;;1.42;;
12760;SDS011;6444;49.742;6.114;2022-09-09T14:47:56;3.20;;;1.45;;
12760;SDS011;6444;49.742;6.114;2022-09-09T14:50:23;4.97;;;1.60;;
12760;SDS011;6444;49.742;6.114;2022-09-09T14:52:50;6.62;;;1.60;;
12760;SDS011;6444;49.742;6.114;2022-09-09T14:55:17;3.50;;;1.40;;
12760;SDS011;6444;49.742;6.114;2022-09-09T14:57:44;3.80;;;1.80;;
12760;SDS011;6444;49.742;6.114;2022-09-09T15:00:10;2.78;;;2.12;;
12760;SDS011;6444;49.742;6.114;2022-09-09T15:02:37;7.45;;;1.80;;
12760;SDS011;6444;49.742;6.114;2022-09-09T15:05:05;4.18;;;1.75;;
12760;SDS011;6444;49.742;6.114;2022-09-09T15:07:31;3.70;;;1.33;;
12760;SDS011;6444;49.742;6.114;2022-09-09T15:09:58;3.70;;;1.80;;
12760;SDS011;6444;49.742;6.114;2022-09-09T15:12:25;3.17;;;1.33;;
12760;SDS011;6444;49.742;6.114;2022-09-09T15:14:52;4.05;;;1.62;;
12760;SDS011;6444;49.742;6.114;2022-09-09T15:17:18;4.93;;;1.73;;
12760;SDS011;6444;49.742;6.114;2022-09-09T15:19:45;2.62;;;1.83;;
12760;SDS011;6444;49.742;6.114;2022-09-09T15:22:11;5.18;;;2.10;;
12760;SDS011;6444;49.742;6.114;2022-09-09T15:24:38;5.93;;;2.05;;
12760;SDS011;6444;49.742;6.114;2022-09-09T15:27:05;3.37;;;1.20;;
12760;SDS011;6444;49.742;6.114;2022-09-09T15:29:31;3.28;;;1.60;;
12760;SDS011;6444;49.742;6.114;2022-09-09T15:31:58;1.77;;;1.37;;
12760;SDS011;6444;49.742;6.114;2022-09-09T15:34:25;4.55;;;1.65;;
12760;SDS011;6444;49.742;6.114;2022-09-09T15:36:51;8.32;;;5.75;;
12760;SDS011;6444;49.742;6.114;2022-09-09T15:39:18;6.10;;;3.85;;
12760;SDS011;6444;49.742;6.114;2022-09-09T15:41:45;4.55;;;3.45;;
12760;SDS011;6444;49.742;6.114;2022-09-09T15:44:12;5.97;;;3.70;;
12760;SDS011;6444;49.742;6.114;2022-09-09T15:46:44;5.03;;;2.85;;
12760;SDS011;6444;49.742;6.114;2022-09-09T15:49:12;4.78;;;3.87;;
12760;SDS011;6444;49.742;6.114;2022-09-09T15:51:38;3.08;;;1.80;;
12760;SDS011;6444;49.742;6.114;2022-09-09T15:54:05;4.22;;;1.55;;
12760;SDS011;6444;49.742;6.114;2022-09-09T15:56:31;11.35;;;6.95;;
12760;SDS011;6444;49.742;6.114;2022-09-09T15:59:01;7.37;;;3.65;;
12760;SDS011;6444;49.742;6.114;2022-09-09T16:01:27;4.32;;;2.53;;
12760;SDS011;6444;49.742;6.114;2022-09-09T16:03:54;3.75;;;2.00;;
12760;SDS011;6444;49.742;6.114;2022-09-09T16:06:22;3.35;;;1.77;;
12760;SDS011;6444;49.742;6.114;2022-09-09T16:08:48;3.55;;;2.40;;
12760;SDS011;6444;49.742;6.114;2022-09-09T16:11:15;4.10;;;3.70;;
12760;SDS011;6444;49.742;6.114;2022-09-09T16:13:42;14.18;;;10.93;;
12760;SDS011;6444;49.742;6.114;2022-09-09T16:16:09;3.83;;;1.70;;
12760;SDS011;6444;49.742;6.114;2022-09-09T16:18:42;3.47;;;1.30;;
12760;SDS011;6444;49.742;6.114;2022-09-09T16:21:08;5.47;;;2.05;;
12760;SDS011;6444;49.742;6.114;2022-09-09T16:23:34;4.65;;;1.48;;
12760;SDS011;6444;49.742;6.114;2022-09-09T16:26:00;4.18;;;1.60;;
12760;SDS011;6444;49.742;6.114;2022-09-09T16:28:27;2.80;;;1.35;;
12760;SDS011;6444;49.742;6.114;2022-09-09T16:30:54;2.70;;;1.42;;
12760;SDS011;6444;49.742;6.114;2022-09-09T16:33:21;3.75;;;1.30;;
12760;SDS011;6444;49.742;6.114;2022-09-09T16:35:48;1.77;;;1.40;;
12760;SDS011;6444;49.742;6.114;2022-09-09T16:38:15;1.80;;;1.40;;
12760;SDS011;6444;49.742;6.114;2022-09-09T16:40:41;4.47;;;1.60;;
12760;SDS011;6444;49.742;6.114;2022-09-09T16:43:08;4.75;;;1.33;;
12760;SDS011;6444;49.742;6.114;2022-09-09T16:45:43;3.80;;;1.20;;